sensor_id;sensor_type;location;lat;lon;timestamp;pressure;altitude;pressure_sealevel;temperature;humidity
47811;BME280;33575;52.600;7.318;2023-01-31T00:00:54;102008.71;;;3.71;92.99
47811;BME280;33575;52.600;7.318;2023-01-31T00:03:25;102010.80;;;3.65;93.62
47811;BME280;33575;52.600;7.318;2023-01-31T00:05:55;102011.78;;;3.67;93.17
47811;BME280;33575;52.600;7.318;2023-01-31T00:08:26;102006.01;;;3.67;93.01
47811;BME280;33575;52.600;7.318;2023-01-31T00:10:58;101998.17;;;3.54;93.29
47811;BME280;33575;52.600;7.318;2023-01-31T00:13:28;101996.66;;;3.50;94.44
47811;BME280;33575;52.600;7.318;2023-01-31T00:15:59;101998.08;;;3.52;93.48
47811;BME280;33575;52.600;7.318;2023-01-31T00:18:30;101998.92;;;3.59;93.46
47811;BME280;33575;52.600;7.318;2023-01-31T00:21:05;102002.88;;;3.59;93.02
47811;BME280;33575;52.600;7.318;2023-01-31T00:23:31;101992.76;;;3.57;94.70
47811;BME280;33575;52.600;7.318;2023-01-31T00:26:07;101984.08;;;3.67;98.07
47811;BME280;33575;52.600;7.318;2023-01-31T00:28:31;101979.87;;;3.65;94.00
47811;BME280;33575;52.600;7.318;2023-01-31T00:31:02;101978.36;;;3.53;93.57
47811;BME280;33575;52.600;7.318;2023-01-31T00:33:33;101975.88;;;3.29;92.66
47811;BME280;33575;52.600;7.318;2023-01-31T00:36:05;101976.23;;;3.26;92.80
47811;BME280;33575;52.600;7.318;2023-01-31T00:38:34;101977.86;;;3.28;93.59
47811;BME280;33575;52.600;7.318;2023-01-31T00:41:05;101971.58;;;3.27;93.19
47811;BME280;33575;52.600;7.318;2023-01-31T00:43:36;101971.27;;;3.15;93.39
47811;BME280;33575;52.600;7.318;2023-01-31T00:46:06;101964.02;;;3.04;93.80
47811;BME280;33575;52.600;7.318;2023-01-31T00:48:38;101960.29;;;2.99;93.92
47811;BME280;33575;52.600;7.318;2023-01-31T00:51:08;101956.44;;;2.96;94.14
47811;BME280;33575;52.600;7.318;2023-01-31T00:53:39;101965.60;;;2.97;94.68
47811;BME280;33575;52.600;7.318;2023-01-31T00:56:18;101973.63;;;2.99;95.00
47811;BME280;33575;52.600;7.318;2023-01-31T00:58:40;101970.42;;;2.93;95.40
47811;BME280;33575;52.600;7.318;2023-01-31T01:01:19;101967.25;;;2.97;94.75
47811;BME280;33575;52.600;7.318;2023-01-31T01:03:58;101966.71;;;2.86;95.38
47811;BME280;33575;52.600;7.318;2023-01-31T01:06:13;101974.21;;;2.93;95.37
47811;BME280;33575;52.600;7.318;2023-01-31T01:08:55;101978.40;;;2.95;95.28
47811;BME280;33575;52.600;7.318;2023-01-31T01:11:17;101977.34;;;2.93;95.38
47811;BME280;33575;52.600;7.318;2023-01-31T01:13:47;101970.08;;;2.95;94.85
47811;BME280;33575;52.600;7.318;2023-01-31T01:16:39;101967.98;;;2.96;95.04
47811;BME280;33575;52.600;7.318;2023-01-31T01:18:47;101970.09;;;2.88;95.77
47811;BME280;33575;52.600;7.318;2023-01-31T01:21:19;101968.39;;;2.96;95.03
47811;BME280;33575;52.600;7.318;2023-01-31T01:23:49;101962.88;;;2.93;95.10
47811;BME280;33575;52.600;7.318;2023-01-31T01:26:22;101962.49;;;2.78;96.23
47811;BME280;33575;52.600;7.318;2023-01-31T01:28:51;101966.37;;;2.92;95.29
47811;BME280;33575;52.600;7.318;2023-01-31T01:31:21;101972.79;;;2.99;94.97
47811;BME280;33575;52.600;7.318;2023-01-31T01:33:51;101972.03;;;3.05;94.59
47811;BME280;33575;52.600;7.318;2023-01-31T01:36:22;101969.51;;;3.01;94.81
47811;BME280;33575;52.600;7.318;2023-01-31T01:38:53;101971.07;;;2.96;95.14
47811;BME280;33575;52.600;7.318;2023-01-31T01:41:22;101972.68;;;3.01;94.22
47811;BME280;33575;52.600;7.318;2023-01-31T01:43:55;101977.19;;;2.98;94.72
47811;BME280;33575;52.600;7.318;2023-01-31T01:46:26;101983.52;;;2.98;94.57
47811;BME280;33575;52.600;7.318;2023-01-31T01:48:57;101983.88;;;3.02;94.54
47811;BME280;33575;52.600;7.318;2023-01-31T01:51:26;101982.94;;;3.04;94.41
47811;BME280;33575;52.600;7.318;2023-01-31T01:54:00;101991.50;;;3.02;93.93
47811;BME280;33575;52.600;7.318;2023-01-31T01:56:29;101993.47;;;3.00;94.13
47811;BME280;33575;52.600;7.318;2023-01-31T01:59:02;101995.80;;;3.04;93.88
47811;BME280;33575;52.600;7.318;2023-01-31T02:01:33;101997.92;;;3.10;93.40
47811;BME280;33575;52.600;7.318;2023-01-31T02:03:58;102001.35;;;3.10;92.98
47811;BME280;33575;52.600;7.318;2023-01-31T02:06:30;102002.87;;;3.03;92.39
47811;BME280;33575;52.600;7.318;2023-01-31T02:09:00;102002.50;;;2.95;92.15
47811;BME280;33575;52.600;7.318;2023-01-31T02:11:32;102001.78;;;2.89;92.64
47811;BME280;33575;52.600;7.318;2023-01-31T02:14:04;102009.54;;;2.89;92.51
47811;BME280;33575;52.600;7.318;2023-01-31T02:16:32;102011.43;;;2.82;92.72
47811;BME280;33575;52.600;7.318;2023-01-31T02:19:09;102013.83;;;2.77;92.58
47811;BME280;33575;52.600;7.318;2023-01-31T02:29:18;102011.01;;;2.64;92.99
47811;BME280;33575;52.600;7.318;2023-01-31T02:34:13;101989.94;;;2.60;92.48
47811;BME280;33575;52.600;7.318;2023-01-31T02:36:47;101990.35;;;2.44;92.98
47811;BME280;33575;52.600;7.318;2023-01-31T02:39:16;101979.33;;;2.53;92.80
47811;BME280;33575;52.600;7.318;2023-01-31T02:41:44;101978.41;;;2.55;92.51
47811;BME280;33575;52.600;7.318;2023-01-31T02:44:17;101972.41;;;2.49;92.70
47811;BME280;33575;52.600;7.318;2023-01-31T02:46:46;101964.73;;;2.45;92.54
47811;BME280;33575;52.600;7.318;2023-01-31T02:49:16;101967.19;;;2.38;92.47
47811;BME280;33575;52.600;7.318;2023-01-31T02:51:44;101970.62;;;2.33;92.58
47811;BME280;33575;52.600;7.318;2023-01-31T02:54:16;101970.51;;;2.31;92.51
47811;BME280;33575;52.600;7.318;2023-01-31T02:56:45;101975.99;;;2.28;92.25
47811;BME280;33575;52.600;7.318;2023-01-31T02:59:19;101978.30;;;2.26;92.14
47811;BME280;33575;52.600;7.318;2023-01-31T03:01:47;101975.48;;;2.20;93.48
47811;BME280;33575;52.600;7.318;2023-01-31T03:04:16;101975.18;;;2.21;92.87
47811;BME280;33575;52.600;7.318;2023-01-31T03:06:54;101965.34;;;2.14;93.45
47811;BME280;33575;52.600;7.318;2023-01-31T03:09:28;101956.84;;;2.14;93.51
47811;BME280;33575;52.600;7.318;2023-01-31T03:11:54;101952.58;;;2.09;93.48
47811;BME280;33575;52.600;7.318;2023-01-31T03:14:26;101944.96;;;2.11;93.78
47811;BME280;33575;52.600;7.318;2023-01-31T03:16:53;101941.42;;;2.08;94.55
47811;BME280;33575;52.600;7.318;2023-01-31T03:19:26;101940.15;;;2.08;94.15
47811;BME280;33575;52.600;7.318;2023-01-31T03:21:55;101938.56;;;2.09;93.99
47811;BME280;33575;52.600;7.318;2023-01-31T03:24:23;101929.12;;;2.12;94.70
47811;BME280;33575;52.600;7.318;2023-01-31T03:26:55;101932.77;;;2.13;94.91
47811;BME280;33575;52.600;7.318;2023-01-31T03:29:25;101933.81;;;2.12;95.84
47811;BME280;33575;52.600;7.318;2023-01-31T03:31:57;101927.31;;;2.12;95.66
47811;BME280;33575;52.600;7.318;2023-01-31T03:34:26;101928.32;;;2.19;95.05
47811;BME280;33575;52.600;7.318;2023-01-31T03:37:02;101926.56;;;2.16;95.79
47811;BME280;33575;52.600;7.318;2023-01-31T03:39:34;101930.88;;;2.20;95.34
47811;BME280;33575;52.600;7.318;2023-01-31T03:42:02;101930.79;;;2.27;94.92
47811;BME280;33575;52.600;7.318;2023-01-31T03:44:37;101929.95;;;2.25;95.27
47811;BME280;33575;52.600;7.318;2023-01-31T03:47:04;101926.40;;;2.35;95.26
47811;BME280;33575;52.600;7.318;2023-01-31T03:49:31;101926.90;;;2.37;94.91
47811;BME280;33575;52.600;7.318;2023-01-31T03:52:04;101925.84;;;2.42;95.04
47811;BME280;33575;52.600;7.318;2023-01-31T03:54:36;101921.74;;;2.49;94.92
47811;BME280;33575;52.600;7.318;2023-01-31T03:57:05;101917.60;;;2.53;94.77
47811;BME280;33575;52.600;7.318;2023-01-31T03:59:36;101913.63;;;2.55;94.66
47811;BME280;33575;52.600;7.318;2023-01-31T04:02:08;101909.15;;;2.57;94.68
47811;BME280;33575;52.600;7.318;2023-01-31T04:04:39;101902.26;;;2.54;94.78
47811;BME280;33575;52.600;7.318;2023-01-31T04:07:05;101898.96;;;2.60;94.53
47811;BME280;33575;52.600;7.318;2023-01-31T04:09:36;101893.12;;;2.60;94.79
47811;BME280;33575;52.600;7.318;2023-01-31T04:12:07;101894.93;;;2.62;94.99
47811;BME280;33575;52.600;7.318;2023-01-31T04:14:37;101887.41;;;2.44;95.91
47811;BME280;33575;52.600;7.318;2023-01-31T04:17:08;101884.28;;;2.58;95.65
47811;BME280;33575;52.600;7.318;2023-01-31T04:19:39;101881.94;;;2.62;95.50
47811;BME280;33575;52.600;7.318;2023-01-31T04:22:10;101875.47;;;2.68;94.88
47811;BME280;33575;52.600;7.318;2023-01-31T04:24:41;101865.12;;;2.64;95.40
47811;BME280;33575;52.600;7.318;2023-01-31T04:27:12;101860.84;;;2.65;95.72
47811;BME280;33575;52.600;7.318;2023-01-31T04:29:42;101859.93;;;2.42;97.15
47811;BME280;33575;52.600;7.318;2023-01-31T04:32:13;101863.97;;;2.69;96.42
47811;BME280;33575;52.600;7.318;2023-01-31T04:34:44;101861.15;;;2.68;96.67
47811;BME280;33575;52.600;7.318;2023-01-31T04:37:15;101851.74;;;2.75;96.42
47811;BME280;33575;52.600;7.318;2023-01-31T04:39:45;101843.44;;;2.60;97.30
47811;BME280;33575;52.600;7.318;2023-01-31T04:42:16;101840.92;;;2.76;97.08
47811;BME280;33575;52.600;7.318;2023-01-31T04:44:47;101838.15;;;2.77;96.68
47811;BME280;33575;52.600;7.318;2023-01-31T04:47:18;101844.77;;;2.95;96.63
47811;BME280;33575;52.600;7.318;2023-01-31T04:49:48;101840.54;;;2.97;96.51
47811;BME280;33575;52.600;7.318;2023-01-31T04:52:19;101837.43;;;2.90;97.14
47811;BME280;33575;52.600;7.318;2023-01-31T04:54:50;101834.98;;;2.97;96.76
47811;BME280;33575;52.600;7.318;2023-01-31T04:57:21;101830.18;;;2.93;97.61
47811;BME280;33575;52.600;7.318;2023-01-31T04:59:52;101828.30;;;2.92;98.22
47811;BME280;33575;52.600;7.318;2023-01-31T05:02:23;101824.50;;;3.01;98.06
47811;BME280;33575;52.600;7.318;2023-01-31T05:04:53;101823.56;;;3.09;97.98
47811;BME280;33575;52.600;7.318;2023-01-31T05:07:24;101820.19;;;3.07;97.97
47811;BME280;33575;52.600;7.318;2023-01-31T05:09:55;101819.44;;;3.10;98.22
47811;BME280;33575;52.600;7.318;2023-01-31T05:12:25;101818.15;;;3.09;98.49
47811;BME280;33575;52.600;7.318;2023-01-31T05:14:55;101811.42;;;3.23;97.73
47811;BME280;33575;52.600;7.318;2023-01-31T05:17:26;101808.55;;;3.29;97.62
47811;BME280;33575;52.600;7.318;2023-01-31T05:19:57;101807.64;;;3.38;97.39
47811;BME280;33575;52.600;7.318;2023-01-31T05:22:27;101796.89;;;3.39;98.29
47811;BME280;33575;52.600;7.318;2023-01-31T05:24:59;101788.25;;;3.46;97.44
47811;BME280;33575;52.600;7.318;2023-01-31T05:27:29;101787.08;;;3.57;96.91
47811;BME280;33575;52.600;7.318;2023-01-31T05:29:59;101784.27;;;3.45;97.58
47811;BME280;33575;52.600;7.318;2023-01-31T05:32:30;101783.26;;;3.60;97.48
47811;BME280;33575;52.600;7.318;2023-01-31T05:35:01;101782.74;;;3.72;96.76
47811;BME280;33575;52.600;7.318;2023-01-31T05:37:32;101787.98;;;3.61;98.65
47811;BME280;33575;52.600;7.318;2023-01-31T05:40:02;101789.00;;;3.73;97.64
47811;BME280;33575;52.600;7.318;2023-01-31T05:42:33;101793.48;;;3.70;97.77
47811;BME280;33575;52.600;7.318;2023-01-31T05:45:04;101793.92;;;3.77;97.49
47811;BME280;33575;52.600;7.318;2023-01-31T05:47:33;101797.17;;;3.71;98.26
47811;BME280;33575;52.600;7.318;2023-01-31T05:50:04;101790.36;;;3.83;97.70
47811;BME280;33575;52.600;7.318;2023-01-31T05:52:34;101780.70;;;3.86;97.44
47811;BME280;33575;52.600;7.318;2023-01-31T05:55:05;101786.72;;;3.92;97.58
47811;BME280;33575;52.600;7.318;2023-01-31T05:57:35;101788.16;;;3.88;97.85
47811;BME280;33575;52.600;7.318;2023-01-31T06:00:07;101788.26;;;3.94;97.65
47811;BME280;33575;52.600;7.318;2023-01-31T06:02:37;101791.20;;;4.00;97.21
47811;BME280;33575;52.600;7.318;2023-01-31T06:05:08;101792.20;;;4.04;97.28
47811;BME280;33575;52.600;7.318;2023-01-31T06:07:38;101790.07;;;4.06;96.91
47811;BME280;33575;52.600;7.318;2023-01-31T06:10:10;101788.59;;;4.09;96.40
47811;BME280;33575;52.600;7.318;2023-01-31T06:12:39;101795.98;;;4.17;96.26
47811;BME280;33575;52.600;7.318;2023-01-31T06:15:10;101788.39;;;3.89;97.62
47811;BME280;33575;52.600;7.318;2023-01-31T06:17:40;101788.70;;;4.03;97.05
47811;BME280;33575;52.600;7.318;2023-01-31T06:20:10;101786.49;;;3.88;98.24
47811;BME280;33575;52.600;7.318;2023-01-31T06:22:41;101793.11;;;3.96;97.91
47811;BME280;33575;52.600;7.318;2023-01-31T06:25:11;101789.13;;;4.01;96.92
47811;BME280;33575;52.600;7.318;2023-01-31T06:27:42;101781.41;;;4.04;99.86
47811;BME280;33575;52.600;7.318;2023-01-31T06:30:13;101779.26;;;4.37;100.00
47811;BME280;33575;52.600;7.318;2023-01-31T06:32:43;101768.87;;;4.35;97.64
47811;BME280;33575;52.600;7.318;2023-01-31T06:35:14;101768.68;;;4.29;96.80
47811;BME280;33575;52.600;7.318;2023-01-31T06:37:45;101763.23;;;4.03;96.65
47811;BME280;33575;52.600;7.318;2023-01-31T06:40:16;101757.58;;;3.91;96.01
47811;BME280;33575;52.600;7.318;2023-01-31T06:42:46;101752.44;;;3.80;96.77
47811;BME280;33575;52.600;7.318;2023-01-31T06:45:16;101746.90;;;3.62;97.31
47811;BME280;33575;52.600;7.318;2023-01-31T06:47:47;101750.34;;;3.68;97.51
47811;BME280;33575;52.600;7.318;2023-01-31T06:50:17;101749.86;;;3.65;97.61
47811;BME280;33575;52.600;7.318;2023-01-31T06:52:47;101741.41;;;3.60;98.35
47811;BME280;33575;52.600;7.318;2023-01-31T06:55:18;101731.39;;;3.50;99.24
47811;BME280;33575;52.600;7.318;2023-01-31T06:57:49;101728.19;;;3.38;100.00
47811;BME280;33575;52.600;7.318;2023-01-31T07:00:20;101715.70;;;3.60;99.50
47811;BME280;33575;52.600;7.318;2023-01-31T07:02:51;101709.45;;;3.72;99.07
47811;BME280;33575;52.600;7.318;2023-01-31T07:05:21;101712.05;;;3.70;99.28
47811;BME280;33575;52.600;7.318;2023-01-31T07:07:50;101713.35;;;3.80;98.22
47811;BME280;33575;52.600;7.318;2023-01-31T07:10:21;101720.04;;;3.78;99.39
47811;BME280;33575;52.600;7.318;2023-01-31T07:12:52;101719.40;;;3.87;98.93
47811;BME280;33575;52.600;7.318;2023-01-31T07:15:23;101711.62;;;3.87;98.49
47811;BME280;33575;52.600;7.318;2023-01-31T07:17:56;101708.48;;;3.89;98.06
47811;BME280;33575;52.600;7.318;2023-01-31T07:20:24;101707.12;;;3.99;98.14
47811;BME280;33575;52.600;7.318;2023-01-31T07:22:58;101696.78;;;4.09;97.80
47811;BME280;33575;52.600;7.318;2023-01-31T07:25:25;101694.67;;;4.12;97.42
47811;BME280;33575;52.600;7.318;2023-01-31T07:27:55;101688.96;;;4.13;97.30
47811;BME280;33575;52.600;7.318;2023-01-31T07:30:25;101691.88;;;3.99;98.32
47811;BME280;33575;52.600;7.318;2023-01-31T07:32:55;101686.98;;;3.79;99.79
47811;BME280;33575;52.600;7.318;2023-01-31T07:35:27;101692.44;;;3.98;98.57
47811;BME280;33575;52.600;7.318;2023-01-31T07:37:56;101685.12;;;3.86;99.47
47811;BME280;33575;52.600;7.318;2023-01-31T07:40:27;101674.65;;;3.97;98.95
47811;BME280;33575;52.600;7.318;2023-01-31T07:42:58;101676.58;;;3.98;98.91
47811;BME280;33575;52.600;7.318;2023-01-31T07:45:28;101670.17;;;4.05;98.43
47811;BME280;33575;52.600;7.318;2023-01-31T07:47:58;101665.18;;;4.05;98.67
47811;BME280;33575;52.600;7.318;2023-01-31T07:50:29;101662.01;;;4.04;98.67
47811;BME280;33575;52.600;7.318;2023-01-31T07:52:59;101665.21;;;4.14;97.73
47811;BME280;33575;52.600;7.318;2023-01-31T07:55:29;101653.26;;;4.21;97.15
47811;BME280;33575;52.600;7.318;2023-01-31T07:58:00;101654.63;;;4.18;97.96
47811;BME280;33575;52.600;7.318;2023-01-31T08:00:31;101644.62;;;4.28;97.48
47811;BME280;33575;52.600;7.318;2023-01-31T08:03:01;101647.02;;;4.29;96.92
47811;BME280;33575;52.600;7.318;2023-01-31T08:05:32;101640.39;;;4.14;98.43
47811;BME280;33575;52.600;7.318;2023-01-31T08:08:03;101638.22;;;4.31;97.53
47811;BME280;33575;52.600;7.318;2023-01-31T08:10:33;101641.64;;;4.38;97.53
47811;BME280;33575;52.600;7.318;2023-01-31T08:13:04;101637.36;;;4.13;98.01
47811;BME280;33575;52.600;7.318;2023-01-31T08:15:34;101633.58;;;4.28;98.39
47811;BME280;33575;52.600;7.318;2023-01-31T08:18:07;101628.14;;;4.30;98.23
47811;BME280;33575;52.600;7.318;2023-01-31T08:20:35;101633.06;;;4.28;98.37
47811;BME280;33575;52.600;7.318;2023-01-31T08:23:05;101620.89;;;4.37;96.95
47811;BME280;33575;52.600;7.318;2023-01-31T08:25:35;101620.54;;;4.46;96.72
47811;BME280;33575;52.600;7.318;2023-01-31T08:28:06;101621.55;;;4.49;97.35
47811;BME280;33575;52.600;7.318;2023-01-31T08:30:39;101614.30;;;4.52;96.82
47811;BME280;33575;52.600;7.318;2023-01-31T08:33:08;101605.21;;;4.29;98.04
47811;BME280;33575;52.600;7.318;2023-01-31T08:35:38;101608.81;;;4.42;97.95
47811;BME280;33575;52.600;7.318;2023-01-31T08:38:14;101593.55;;;4.46;97.33
47811;BME280;33575;52.600;7.318;2023-01-31T08:40:39;101590.57;;;4.54;97.14
47811;BME280;33575;52.600;7.318;2023-01-31T08:43:10;101591.26;;;4.45;97.98
47811;BME280;33575;52.600;7.318;2023-01-31T08:45:40;101595.74;;;4.49;97.24
47811;BME280;33575;52.600;7.318;2023-01-31T08:48:10;101595.41;;;4.47;97.26
47811;BME280;33575;52.600;7.318;2023-01-31T08:50:41;101589.53;;;4.37;98.53
47811;BME280;33575;52.600;7.318;2023-01-31T08:53:11;101589.66;;;4.48;97.18
47811;BME280;33575;52.600;7.318;2023-01-31T08:55:41;101592.24;;;4.42;97.99
47811;BME280;33575;52.600;7.318;2023-01-31T08:58:12;101577.60;;;4.39;98.47
47811;BME280;33575;52.600;7.318;2023-01-31T09:00:42;101569.43;;;4.52;97.67
47811;BME280;33575;52.600;7.318;2023-01-31T09:03:14;101562.32;;;4.48;98.21
47811;BME280;33575;52.600;7.318;2023-01-31T09:05:43;101560.34;;;4.42;98.24
47811;BME280;33575;52.600;7.318;2023-01-31T09:08:13;101566.41;;;4.53;97.63
47811;BME280;33575;52.600;7.318;2023-01-31T09:10:49;101562.53;;;4.39;98.82
47811;BME280;33575;52.600;7.318;2023-01-31T09:13:14;101562.68;;;4.59;97.93
47811;BME280;33575;52.600;7.318;2023-01-31T09:15:44;101568.43;;;4.58;97.86
47811;BME280;33575;52.600;7.318;2023-01-31T09:18:15;101568.68;;;4.61;98.17
47811;BME280;33575;52.600;7.318;2023-01-31T09:20:45;101570.30;;;4.60;98.22
47811;BME280;33575;52.600;7.318;2023-01-31T09:23:16;101579.93;;;4.62;98.29
47811;BME280;33575;52.600;7.318;2023-01-31T09:25:51;101579.68;;;4.49;99.35
47811;BME280;33575;52.600;7.318;2023-01-31T09:28:17;101579.47;;;4.63;98.09
47811;BME280;33575;52.600;7.318;2023-01-31T09:30:48;101578.68;;;4.73;97.78
47811;BME280;33575;52.600;7.318;2023-01-31T09:33:18;101581.35;;;4.77;97.62
47811;BME280;33575;52.600;7.318;2023-01-31T09:35:54;101576.98;;;4.79;97.53
47811;BME280;33575;52.600;7.318;2023-01-31T09:38:19;101567.29;;;4.80;97.63
47811;BME280;33575;52.600;7.318;2023-01-31T09:40:50;101566.42;;;4.86;97.16
47811;BME280;33575;52.600;7.318;2023-01-31T09:43:23;101562.84;;;4.87;97.80
47811;BME280;33575;52.600;7.318;2023-01-31T09:45:53;101575.74;;;4.91;97.25
47811;BME280;33575;52.600;7.318;2023-01-31T09:48:25;101570.67;;;4.94;96.91
47811;BME280;33575;52.600;7.318;2023-01-31T09:50:53;101563.43;;;4.99;97.08
47811;BME280;33575;52.600;7.318;2023-01-31T09:53:23;101562.18;;;5.07;96.28
47811;BME280;33575;52.600;7.318;2023-01-31T09:55:57;101561.14;;;5.06;96.80
47811;BME280;33575;52.600;7.318;2023-01-31T09:58:30;101547.46;;;5.10;96.61
47811;BME280;33575;52.600;7.318;2023-01-31T10:01:00;101553.03;;;4.98;96.92
47811;BME280;33575;52.600;7.318;2023-01-31T10:03:34;101557.68;;;5.06;96.81
47811;BME280;33575;52.600;7.318;2023-01-31T10:05:59;101553.78;;;5.05;97.24
47811;BME280;33575;52.600;7.318;2023-01-31T10:08:36;101555.16;;;5.10;97.66
47811;BME280;33575;52.600;7.318;2023-01-31T10:10:58;101537.15;;;5.11;97.69
47811;BME280;33575;52.600;7.318;2023-01-31T10:13:30;101528.25;;;5.10;97.79
47811;BME280;33575;52.600;7.318;2023-01-31T10:16:01;101530.34;;;5.20;97.19
47811;BME280;33575;52.600;7.318;2023-01-31T10:18:29;101515.20;;;5.29;96.61
47811;BME280;33575;52.600;7.318;2023-01-31T10:21:00;101526.53;;;5.29;97.24
47811;BME280;33575;52.600;7.318;2023-01-31T10:23:30;101524.40;;;5.10;98.59
47811;BME280;33575;52.600;7.318;2023-01-31T10:25:59;101523.93;;;5.08;98.61
47811;BME280;33575;52.600;7.318;2023-01-31T10:28:33;101522.27;;;5.11;98.68
47811;BME280;33575;52.600;7.318;2023-01-31T10:31:02;101509.83;;;5.22;97.98
47811;BME280;33575;52.600;7.318;2023-01-31T10:33:37;101506.29;;;5.32;97.37
47811;BME280;33575;52.600;7.318;2023-01-31T10:36:02;101501.17;;;4.98;99.38
47811;BME280;33575;52.600;7.318;2023-01-31T10:38:32;101497.48;;;5.28;97.71
47811;BME280;33575;52.600;7.318;2023-01-31T10:41:05;101498.33;;;5.38;97.24
47811;BME280;33575;52.600;7.318;2023-01-31T10:43:36;101507.83;;;5.38;97.22
47811;BME280;33575;52.600;7.318;2023-01-31T10:46:00;101502.67;;;5.28;97.13
47811;BME280;33575;52.600;7.318;2023-01-31T10:48:31;101487.69;;;5.30;97.65
47811;BME280;33575;52.600;7.318;2023-01-31T10:51:08;101487.22;;;5.34;97.54
47811;BME280;33575;52.600;7.318;2023-01-31T10:53:46;101488.86;;;5.33;98.22
47811;BME280;33575;52.600;7.318;2023-01-31T10:56:04;101492.99;;;5.46;97.49
47811;BME280;33575;52.600;7.318;2023-01-31T10:58:34;101499.90;;;5.42;97.62
47811;BME280;33575;52.600;7.318;2023-01-31T11:01:04;101501.35;;;5.49;97.25
47811;BME280;33575;52.600;7.318;2023-01-31T11:03:34;101502.42;;;5.40;98.17
47811;BME280;33575;52.600;7.318;2023-01-31T11:06:05;101506.89;;;5.16;99.17
47811;BME280;33575;52.600;7.318;2023-01-31T11:08:40;101500.36;;;5.42;97.26
47811;BME280;33575;52.600;7.318;2023-01-31T11:11:07;101502.51;;;5.44;98.04
47811;BME280;33575;52.600;7.318;2023-01-31T11:13:36;101495.31;;;5.41;97.36
47811;BME280;33575;52.600;7.318;2023-01-31T11:16:07;101502.88;;;5.32;98.64
47811;BME280;33575;52.600;7.318;2023-01-31T11:18:43;101505.57;;;5.35;98.62
47811;BME280;33575;52.600;7.318;2023-01-31T11:21:07;101502.80;;;5.48;98.02
47811;BME280;33575;52.600;7.318;2023-01-31T11:23:37;101502.64;;;5.50;98.28
47811;BME280;33575;52.600;7.318;2023-01-31T11:26:08;101497.48;;;5.51;98.47
47811;BME280;33575;52.600;7.318;2023-01-31T11:28:40;101499.86;;;5.63;98.07
47811;BME280;33575;52.600;7.318;2023-01-31T11:31:16;101497.38;;;5.67;98.39
47811;BME280;33575;52.600;7.318;2023-01-31T11:33:42;101492.06;;;5.65;98.82
47811;BME280;33575;52.600;7.318;2023-01-31T11:36:11;101490.89;;;5.62;99.84
47811;BME280;33575;52.600;7.318;2023-01-31T11:38:41;101482.84;;;5.68;99.14
47811;BME280;33575;52.600;7.318;2023-01-31T11:43:43;101476.57;;;5.77;97.41
47811;BME280;33575;52.600;7.318;2023-01-31T11:46:12;101475.03;;;5.83;98.53
47811;BME280;33575;52.600;7.318;2023-01-31T11:48:43;101472.71;;;5.66;99.84
47811;BME280;33575;52.600;7.318;2023-01-31T11:51:22;101471.24;;;5.74;98.78
47811;BME280;33575;52.600;7.318;2023-01-31T11:53:47;101460.78;;;5.82;97.71
47811;BME280;33575;52.600;7.318;2023-01-31T11:56:18;101452.17;;;5.72;98.94
47811;BME280;33575;52.600;7.318;2023-01-31T11:58:45;101450.15;;;5.63;99.24
47811;BME280;33575;52.600;7.318;2023-01-31T12:01:16;101448.52;;;5.69;98.74
47811;BME280;33575;52.600;7.318;2023-01-31T12:03:52;101449.99;;;5.67;98.78
47811;BME280;33575;52.600;7.318;2023-01-31T12:06:25;101446.11;;;5.64;99.22
47811;BME280;33575;52.600;7.318;2023-01-31T12:08:52;101438.66;;;5.53;99.92
47811;BME280;33575;52.600;7.318;2023-01-31T12:11:25;101449.24;;;5.64;99.42
47811;BME280;33575;52.600;7.318;2023-01-31T12:13:47;101455.97;;;5.68;99.27
47811;BME280;33575;52.600;7.318;2023-01-31T12:16:18;101451.21;;;5.71;99.25
47811;BME280;33575;52.600;7.318;2023-01-31T12:18:57;101445.35;;;5.70;99.24
47811;BME280;33575;52.600;7.318;2023-01-31T12:21:29;101445.87;;;5.63;99.74
47811;BME280;33575;52.600;7.318;2023-01-31T12:23:58;101452.64;;;5.64;100.00
47811;BME280;33575;52.600;7.318;2023-01-31T12:26:25;101448.87;;;5.63;100.00
47811;BME280;33575;52.600;7.318;2023-01-31T12:29:01;101449.83;;;5.61;100.00
47811;BME280;33575;52.600;7.318;2023-01-31T12:31:32;101444.87;;;5.62;100.00
47811;BME280;33575;52.600;7.318;2023-01-31T12:34:01;101438.89;;;5.58;100.00
47811;BME280;33575;52.600;7.318;2023-01-31T12:36:33;101444.68;;;5.41;100.00
47811;BME280;33575;52.600;7.318;2023-01-31T12:39:00;101442.53;;;5.61;100.00
47811;BME280;33575;52.600;7.318;2023-01-31T12:41:31;101436.23;;;5.55;100.00
47811;BME280;33575;52.600;7.318;2023-01-31T12:44:06;101425.09;;;5.42;100.00
47811;BME280;33575;52.600;7.318;2023-01-31T12:46:29;101427.99;;;5.50;100.00
47811;BME280;33575;52.600;7.318;2023-01-31T12:51:36;101438.41;;;5.45;100.00
47811;BME280;33575;52.600;7.318;2023-01-31T12:54:02;101432.67;;;5.54;100.00
47811;BME280;33575;52.600;7.318;2023-01-31T12:56:36;101431.34;;;5.48;100.00
47811;BME280;33575;52.600;7.318;2023-01-31T12:59:07;101428.75;;;5.53;100.00
47811;BME280;33575;52.600;7.318;2023-01-31T13:01:33;101421.02;;;5.53;100.00
47811;BME280;33575;52.600;7.318;2023-01-31T13:04:10;101422.02;;;5.66;100.00
47811;BME280;33575;52.600;7.318;2023-01-31T13:06:31;101412.86;;;5.75;100.00
47811;BME280;33575;52.600;7.318;2023-01-31T13:09:07;101404.37;;;5.76;100.00
47811;BME280;33575;52.600;7.318;2023-01-31T13:11:33;101401.51;;;5.76;100.00
47811;BME280;33575;52.600;7.318;2023-01-31T13:14:02;101401.00;;;5.82;100.00
47811;BME280;33575;52.600;7.318;2023-01-31T13:16:33;101397.20;;;5.79;100.00
47811;BME280;33575;52.600;7.318;2023-01-31T13:19:04;101395.64;;;5.90;100.00
47811;BME280;33575;52.600;7.318;2023-01-31T13:21:35;101396.18;;;5.99;100.00
47811;BME280;33575;52.600;7.318;2023-01-31T13:24:08;101397.62;;;6.03;100.00
47811;BME280;33575;52.600;7.318;2023-01-31T13:26:36;101391.87;;;6.03;100.00
47811;BME280;33575;52.600;7.318;2023-01-31T13:29:06;101389.61;;;5.98;100.00
47811;BME280;33575;52.600;7.318;2023-01-31T13:31:38;101392.72;;;6.06;100.00